Chippewa County International Airport
KCIU : now visible

Airfield :











YOU CAN JOIN US ON...

 
LOGIN :

Register | Disclaimer

   EN    FR    IT 

 









Legend :    VFR   Marginal VFR   IFR   Intensive IFR   Very Intensive IFR
Visi :
Ceiling :
>= 8 km
>= 3000ft
5 to 8 km
1000 to 3000 ft
1500m to 5 km
500 to 1000 ft
800 to 1500m
200 to 500 ft
< 800m
< 200 ft
Symbols :   Thunderstorms  Fog  Heavy snow  Heavy precipitations  Wind > 20 kt






- Airport Elevation : 800 ft
- IATA code : CIU


KCIU - Chippewa County International

CURRENT METAR :
  • 291314Z AUTO 01003KT 2 1/2SM BR OVC002 10/10 A3022 RMK AO2 VIS 1 1/4V5

EXPIRED METARs :
  • 291306Z AUTO 00000KT 3/4SM BR OVC002 09/09 A3021 RMK AO2
  • 291256Z AUTO 29003KT 1/4SM FG OVC002 09/09 A3021 RMK AO2 SLP233 T00940094
  • 291237Z AUTO 02004KT 1 1/4SM BR OVC002 09/09 A3021 RMK AO2
  • 291224Z AUTO 02004KT 2SM BR OVC002 09/09 A3020 RMK AO2 VIS 1V5
  • 291206Z AUTO 00000KT 3/4SM BR OVC002 09/09 A3020 RMK AO2 VIS 1/4V5
  • 291156Z AUTO 00000KT 1/4SM FG OVC002 09/09 A3020 RMK AO2 SLP227 70033 T00890089 10111 20083 51009
  • 291134Z AUTO 00000KT 1/4SM FG OVC002 08/08 A3019 RMK AO2
  • 291116Z AUTO 00000KT 1/2SM FG OVC002 08/08 A3019 RMK AO2
  • 291056Z AUTO 31003KT 1/4SM FG OVC002 08/08 A3018 RMK AO2 SLP223 T00830083
  • 291051Z AUTO 00000KT 1/4SM FG OVC002 08/08 A3018 RMK AO2
  • 291036Z AUTO 35003KT 1/2SM FG OVC002 08/08 A3018 RMK AO2

TAF N/A
KZMP FIR / North America



MET'MAP, your aeronautical weather chart ! - Copyright ORBIFLY December 2007 - Disclaimer

ORBIFLY MET'MAP TEAM :

Programming & Development : Alexandra Zaïnal
Original concept : Baudouin d'Aumeries
Technical & hardware support : Manuel Goepfert
Assistance : Marc-Olivier Méhu




SOURCES & CREDITS :

   NOAA       Earth
Advisory